createdAt,value
2022-11-13T00:00:58.218Z,102361.06
2022-11-13T00:04:03.782Z,102365.56
2022-11-13T00:07:09.212Z,102363.81
2022-11-13T00:10:14.661Z,102339.44
2022-11-13T00:13:19.963Z,102375.44
2022-11-13T00:16:30.316Z,102313.41
2022-11-13T00:19:35.683Z,102391.44
2022-11-13T00:22:41.986Z,102397.66
2022-11-13T00:25:47.427Z,102403.94
2022-11-13T00:28:53.433Z,102352.44
2022-11-13T00:31:58.562Z,102416.41
2022-11-13T00:35:04.039Z,102430.63
2022-11-13T00:38:09.787Z,102435.09
2022-11-13T00:41:15.323Z,102443.09
2022-11-13T00:44:20.907Z,102438.75
2022-11-13T00:47:26.575Z,102440.56
2022-11-13T00:50:31.999Z,102448.59
2022-11-13T00:53:37.562Z,102445.13
2022-11-13T00:56:43.008Z,102408.56
2022-11-13T00:59:48.362Z,102453.25
2022-11-13T01:02:53.687Z,102460.38
2022-11-13T01:06:02.026Z,102446.47
2022-11-13T01:09:07.939Z,102474.69
2022-11-13T01:12:13.647Z,102479.19
2022-11-13T01:15:19.724Z,102421.47
2022-11-13T01:18:25.579Z,102483.72
2022-11-13T01:21:38.062Z,102484.69
2022-11-13T01:24:43.282Z,102490.09
2022-11-13T01:27:48.459Z,102478.84
2022-11-13T01:30:53.983Z,102510.50
2022-11-13T01:33:59.514Z,102507.97
2022-11-13T01:37:05.069Z,102528.28
2022-11-13T01:40:10.395Z,102503.78
2022-11-13T01:43:16.207Z,102518.72
2022-11-13T01:46:36.653Z,102523.19
2022-11-13T01:50:01.018Z,102517.97
2022-11-13T01:53:06.159Z,102452.38
2022-11-13T01:56:12.336Z,102528.66
2022-11-13T01:59:40.122Z,102541.03
2022-11-13T02:02:46.010Z,102545.50
2022-11-13T02:05:51.311Z,102544.63
2022-11-13T02:08:56.717Z,102542.94
2022-11-13T02:12:02.239Z,102545.59
2022-11-13T02:15:12.013Z,102540.31
2022-11-13T02:18:20.561Z,102534.19
2022-11-13T02:21:54.962Z,102530.69
2022-11-13T02:25:02.894Z,102543.06
2022-11-13T02:28:10.366Z,102536.03
2022-11-13T02:31:15.536Z,102538.72
2022-11-13T02:34:24.150Z,102540.47
2022-11-13T02:37:29.363Z,102541.38
2022-11-13T02:40:34.999Z,102537.03
2022-11-13T02:43:40.220Z,102541.41
2022-11-13T02:46:45.950Z,102537.91
2022-11-13T02:49:51.247Z,102529.13
2022-11-13T02:52:57.005Z,102538.81
2022-11-13T02:56:02.453Z,102537.91
2022-11-13T02:59:07.712Z,102532.69
2022-11-13T03:02:13.383Z,102541.47
2022-11-13T03:05:18.883Z,102547.66
2022-11-13T03:08:26.294Z,102549.44
2022-11-13T03:11:32.204Z,102544.16
2022-11-13T03:14:37.960Z,102545.91
2022-11-13T03:17:43.209Z,102553.88
2022-11-13T03:20:48.460Z,102559.19
2022-11-13T03:23:54.058Z,102553.00
2022-11-13T03:26:59.183Z,102553.03
2022-11-13T03:30:04.304Z,102570.69
2022-11-13T03:33:14.011Z,102569.81
2022-11-13T03:36:19.253Z,102572.50
2022-11-13T03:39:25.330Z,102568.94
2022-11-13T03:42:30.979Z,102516.38
2022-11-13T03:45:36.639Z,102591.00
2022-11-13T03:48:42.127Z,102583.06
2022-11-13T03:51:47.507Z,102585.72
2022-11-13T03:54:52.711Z,102584.84
2022-11-13T03:57:57.978Z,102589.28
2022-11-13T04:01:05.099Z,102594.56
2022-11-13T04:04:10.730Z,102587.56
2022-11-13T04:07:16.693Z,102580.59
2022-11-13T04:10:22.502Z,102608.66
2022-11-13T04:13:28.385Z,102611.34
2022-11-13T04:16:33.843Z,102609.59
2022-11-13T04:19:39.194Z,102616.63
2022-11-13T04:22:45.001Z,102621.94
2022-11-13T04:25:50.352Z,102621.06
2022-11-13T04:28:55.896Z,102629.88
2022-11-13T04:32:01.060Z,102636.94
2022-11-13T04:35:06.689Z,102552.66
2022-11-13T04:38:12.155Z,102612.38
2022-11-13T04:41:16.135Z,102641.38
2022-11-13T04:44:21.335Z,102626.44
2022-11-13T04:47:26.983Z,102649.34
2022-11-13T04:50:32.949Z,102647.56
2022-11-13T04:53:38.222Z,102652.84
2022-11-13T04:56:43.887Z,102647.56
2022-11-13T04:59:49.304Z,102651.09
2022-11-13T05:02:55.106Z,102655.50
2022-11-13T05:06:00.798Z,102662.56
2022-11-13T05:09:06.568Z,102653.75
2022-11-13T05:12:12.104Z,102659.91
2022-11-13T05:15:17.250Z,102644.97
2022-11-13T05:18:22.859Z,102669.59
2022-11-13T05:21:29.508Z,102666.94
2022-11-13T05:24:34.841Z,102670.47
2022-11-13T05:27:40.219Z,102676.63
2022-11-13T05:30:46.507Z,102684.53
2022-11-13T05:33:52.213Z,102682.78
2022-11-13T05:36:57.869Z,102688.97
2022-11-13T05:40:03.245Z,102701.28
2022-11-13T05:43:08.790Z,102685.47
2022-11-13T05:46:20.601Z,102704.81
2022-11-13T05:49:26.067Z,102699.53
2022-11-13T05:52:31.688Z,102702.19
2022-11-13T05:55:37.268Z,102703.94
2022-11-13T05:58:42.630Z,102709.22
2022-11-13T06:01:49.993Z,102710.09
2022-11-13T06:04:56.509Z,102710.97
2022-11-13T06:08:02.370Z,102729.44
2022-11-13T06:11:07.643Z,102717.13
2022-11-13T06:14:14.699Z,102718.88
2022-11-13T06:17:20.531Z,102679.34
2022-11-13T06:20:26.156Z,102724.16
2022-11-13T06:23:31.534Z,102720.69
2022-11-13T06:26:40.038Z,102733.88
2022-11-13T06:29:45.651Z,102734.75
2022-11-13T06:32:51.478Z,102746.19
2022-11-13T06:35:57.067Z,102743.56
2022-11-13T06:39:03.592Z,102753.22
2022-11-13T06:42:08.967Z,102749.75
2022-11-13T06:45:14.430Z,102759.41
2022-11-13T06:48:19.766Z,102759.41
2022-11-13T06:51:27.673Z,102741.81
2022-11-13T06:54:33.004Z,102763.81
2022-11-13T06:57:38.131Z,102770.00
2022-11-13T07:00:43.687Z,102763.84
2022-11-13T07:03:48.775Z,102773.50
2022-11-13T07:06:54.363Z,102773.50
2022-11-13T07:09:59.783Z,102789.34
2022-11-13T07:13:05.183Z,102786.72
2022-11-13T07:16:16.861Z,102777.97
2022-11-13T07:19:23.108Z,102799.06
2022-11-13T07:22:28.646Z,102803.47
2022-11-13T07:25:34.083Z,102799.94
2022-11-13T07:28:39.500Z,102800.81
2022-11-13T07:31:45.019Z,102802.56
2022-11-13T07:34:50.222Z,102813.13
2022-11-13T07:37:56.411Z,102808.75
2022-11-13T07:41:01.990Z,102809.63
2022-11-13T07:44:09.448Z,102821.94
2022-11-13T07:47:15.506Z,102826.34
2022-11-13T07:50:21.071Z,102823.69
2022-11-13T07:53:28.408Z,102826.34
2022-11-13T07:56:33.868Z,102836.91
2022-11-13T07:59:39.374Z,102838.69
2022-11-13T08:02:44.756Z,102843.09
2022-11-13T08:05:50.825Z,102851.00
2022-11-13T08:08:56.316Z,102836.06
2022-11-13T08:12:01.995Z,102836.91
2022-11-13T08:15:10.708Z,102831.63
2022-11-13T08:18:21.950Z,102844.84
2022-11-13T08:21:27.220Z,102839.56
2022-11-13T08:24:32.877Z,102843.97
2022-11-13T08:27:38.553Z,102845.72
2022-11-13T08:30:45.385Z,102857.19
2022-11-13T08:33:51.292Z,102811.41
2022-11-13T08:36:56.875Z,102850.13
2022-11-13T08:40:02.305Z,102847.47
2022-11-13T08:43:07.479Z,102852.75
2022-11-13T08:46:12.855Z,102858.03
2022-11-13T08:49:18.382Z,102857.19
2022-11-13T08:52:24.247Z,102858.03
2022-11-13T08:55:29.797Z,102867.75
2022-11-13T08:58:35.537Z,102868.59
2022-11-13T09:01:40.766Z,102873.88
2022-11-13T09:04:46.799Z,102850.13
2022-11-13T09:07:52.384Z,102878.31
2022-11-13T09:10:57.471Z,102874.78
2022-11-13T09:14:02.936Z,102884.47
2022-11-13T09:17:08.640Z,102878.31
2022-11-13T09:20:14.651Z,102873.91
2022-11-13T09:23:24.112Z,102872.13
2022-11-13T09:26:29.834Z,102870.38
2022-11-13T09:29:35.176Z,102873.00
2022-11-13T09:32:40.706Z,102871.25
2022-11-13T09:35:55.892Z,102865.06
2022-11-13T09:39:02.056Z,102876.50
2022-11-13T09:42:13.079Z,102866.81
2022-11-13T09:45:25.976Z,102871.22
2022-11-13T09:48:50.802Z,102822.78
2022-11-13T09:52:00.603Z,102874.72
2022-11-13T09:55:08.442Z,102847.41
2022-11-13T09:58:21.543Z,102870.28
2022-11-13T10:01:41.921Z,102870.28
2022-11-13T10:04:58.156Z,102872.94
2022-11-13T10:08:22.108Z,102885.25
2022-11-13T10:11:42.263Z,102883.47
2022-11-13T10:15:10.758Z,102874.63
2022-11-13T10:18:21.671Z,102875.50
2022-11-13T10:21:40.672Z,102891.38
2022-11-13T10:24:48.770Z,102891.34
2022-11-13T10:27:54.355Z,102886.94
2022-11-13T10:31:01.099Z,102887.78
2022-11-13T10:34:06.537Z,102867.53
2022-11-13T10:37:32.603Z,102882.44
2022-11-13T10:40:48.119Z,102888.63
2022-11-13T10:43:53.966Z,102886.84
2022-11-13T11:29:50.403Z,102938.69
2022-11-13T11:33:03.866Z,102868.22
2022-11-13T11:36:28.044Z,102944.78
2022-11-13T11:39:39.804Z,102950.06
2022-11-13T11:42:56.593Z,102955.34
2022-11-13T11:46:04.655Z,102954.44
2022-11-13T11:49:11.138Z,102957.06
2022-11-13T11:52:36.479Z,102958.78
2022-11-13T11:55:50.999Z,102957.91
2022-11-13T11:59:26.426Z,102961.41
2022-11-13T12:03:01.394Z,102953.47
2022-11-13T12:06:15.802Z,102969.34
2022-11-13T12:09:24.425Z,102964.03
2022-11-13T12:12:32.294Z,102965.81
2022-11-13T12:15:55.026Z,102978.16
2022-11-13T12:19:11.392Z,102974.63
2022-11-13T12:22:17.335Z,102979.06
2022-11-13T12:25:20.919Z,102981.69
2022-11-13T12:28:40.813Z,102971.94
2022-11-13T12:31:44.759Z,102978.13
2022-11-13T12:34:33.832Z,102984.34
2022-11-13T12:37:26.675Z,102968.44
2022-11-13T12:40:44.680Z,102980.78
2022-11-13T12:43:45.278Z,102976.38
2022-11-13T12:46:40.104Z,102971.97
2022-11-13T12:49:49.664Z,102968.44
2022-11-13T12:52:55.245Z,102971.13
2022-11-13T12:55:41.112Z,102975.53
2022-11-13T12:58:32.287Z,102983.47
2022-11-13T13:01:20.783Z,102986.13
2022-11-13T13:04:29.022Z,102965.88
2022-11-13T13:07:36.071Z,102987.00
2022-11-13T13:10:35.091Z,102979.06
2022-11-13T13:13:25.998Z,102927.13
2022-11-13T13:16:12.166Z,102975.53
2022-11-13T13:19:22.666Z,102897.25
2022-11-13T13:22:32.498Z,102982.63
2022-11-13T13:25:27.720Z,102981.75
2022-11-13T13:28:21.631Z,102978.22
2022-11-13T13:31:26.071Z,102973.84
2022-11-13T13:34:46.960Z,102972.97
2022-11-13T13:37:49.871Z,102979.16
2022-11-13T13:40:41.195Z,102975.66
2022-11-13T13:43:51.382Z,102972.16
2022-11-13T13:46:37.458Z,102975.72
2022-11-13T13:49:24.803Z,102981.88
2022-11-13T13:52:15.676Z,102927.34
2022-11-13T13:55:04.062Z,102930.00
2022-11-13T13:57:50.095Z,102984.59
2022-11-13T14:00:44.603Z,102971.38
2022-11-13T14:03:39.127Z,102980.22
2022-11-13T14:06:24.934Z,102969.66
2022-11-13T14:09:17.074Z,102976.72
2022-11-13T14:15:33.383Z,102979.44
2022-11-13T14:18:19.816Z,102990.03
2022-11-13T14:21:16.172Z,102955.69
2022-11-13T14:24:03.663Z,102943.38
2022-11-13T14:26:52.886Z,102977.72
2022-11-13T14:29:49.080Z,102940.75
2022-11-13T14:32:45.645Z,102997.16
2022-11-13T14:35:32.870Z,103003.34
2022-11-13T14:38:21.456Z,103003.38
2022-11-13T14:41:15.219Z,103002.50
2022-11-13T14:44:01.069Z,102996.28
2022-11-13T14:46:47.579Z,102989.25
2022-11-13T14:49:37.720Z,102971.63
2022-11-13T14:52:28.239Z,102988.38
2022-11-13T14:55:32.128Z,102994.56
2022-11-13T14:58:36.411Z,102985.75
2022-11-13T15:01:24.713Z,102986.66
2022-11-13T15:04:10.179Z,102985.75
2022-11-13T15:07:00.295Z,102978.69
2022-11-13T15:09:46.047Z,102990.16
2022-11-13T15:12:31.471Z,102985.78
2022-11-13T15:15:23.221Z,102991.94
2022-11-13T15:18:16.899Z,102995.47
2022-11-13T15:21:02.923Z,102986.66
2022-11-13T15:23:48.214Z,102993.72
2022-11-13T15:26:33.414Z,102982.25
2022-11-13T15:29:18.726Z,102983.13
2022-11-13T15:32:04.078Z,102992.81
2022-11-13T15:34:49.871Z,102991.91
2022-11-13T15:37:35.314Z,102991.03
2022-11-13T15:40:20.570Z,103005.13
2022-11-13T15:43:11.891Z,102988.38
2022-11-13T15:45:57.818Z,102990.13
2022-11-13T15:48:43.306Z,102984.81
2022-11-13T15:52:03.964Z,102978.69
2022-11-13T15:55:09.850Z,102985.69
2022-11-13T15:58:15.673Z,102977.78
2022-11-13T16:01:20.915Z,102959.25
2022-11-13T16:04:50.486Z,102979.50
2022-11-13T16:07:51.995Z,102968.03
2022-11-13T16:10:57.363Z,102959.22
2022-11-13T16:14:03.379Z,102963.63
2022-11-13T16:17:06.619Z,102970.63
2022-11-13T16:20:13.956Z,102967.97
2022-11-13T16:23:19.427Z,102965.31
2022-11-13T16:26:25.424Z,102959.13
2022-11-13T16:29:38.802Z,102974.09
2022-11-13T16:32:44.155Z,102967.91
2022-11-13T16:35:49.559Z,102972.28
2022-11-13T16:38:55.138Z,102948.47
2022-11-13T16:42:00.406Z,102974.88
2022-11-13T16:45:05.991Z,102982.78
2022-11-13T16:48:11.264Z,102983.66
2022-11-13T16:51:16.792Z,102977.47
2022-11-13T16:54:22.368Z,102963.34
2022-11-13T16:57:32.539Z,102966.88
2022-11-13T17:00:39.631Z,102963.34
2022-11-13T17:03:44.886Z,102958.00
2022-11-13T17:06:56.579Z,102962.44
2022-11-13T17:10:29.806Z,102972.06
2022-11-13T17:13:30.989Z,102945.56
2022-11-13T17:16:37.375Z,102972.91
2022-11-13T17:19:42.533Z,102972.84
2022-11-13T17:22:48.078Z,102959.59
2022-11-13T17:25:53.716Z,102972.81
2022-11-13T17:28:59.379Z,102965.75
2022-11-13T17:32:04.925Z,102969.28
2022-11-13T17:35:10.670Z,102969.25
2022-11-13T17:38:15.749Z,102971.00
2022-11-13T17:41:29.247Z,102963.94
2022-11-13T17:44:34.934Z,102971.84
2022-11-13T17:47:40.221Z,102960.38
2022-11-13T17:50:45.427Z,102965.63
2022-11-13T17:53:51.133Z,102961.25
2022-11-13T17:56:56.602Z,102950.63
2022-11-13T18:00:02.379Z,102963.81
2022-11-13T18:03:07.907Z,102962.94
2022-11-13T18:06:13.669Z,102887.00
2022-11-13T18:09:21.222Z,102954.09
2022-11-13T18:12:26.875Z,102946.19
2022-11-13T18:15:32.501Z,102946.19
2022-11-13T18:18:37.606Z,102946.16
2022-11-13T18:21:46.412Z,102947.03
2022-11-13T18:24:51.623Z,102950.50
2022-11-13T18:27:57.378Z,102945.19
2022-11-13T18:31:03.143Z,102954.88
2022-11-13T18:34:09.113Z,102956.63
2022-11-13T18:37:15.110Z,102953.97
2022-11-13T18:40:20.761Z,102960.13
2022-11-13T18:43:26.378Z,102960.97
2022-11-13T18:46:34.066Z,102955.63
2022-11-13T18:49:39.970Z,102959.19
2022-11-13T18:52:45.542Z,102947.75
2022-11-13T18:55:51.064Z,102960.91
2022-11-13T18:58:59.363Z,102958.25
2022-11-13T19:02:05.438Z,102948.53
2022-11-13T19:05:10.927Z,102957.31
2022-11-13T19:08:16.431Z,102963.44
2022-11-13T19:11:33.684Z,102949.34
2022-11-13T19:14:39.215Z,102958.16
2022-11-13T19:17:45.070Z,102958.13
2022-11-13T19:20:52.842Z,102958.13
2022-11-13T19:23:58.623Z,102952.81
2022-11-13T19:27:04.490Z,102955.47
2022-11-13T19:30:09.783Z,102932.53
2022-11-13T19:33:15.272Z,102946.63
2022-11-13T19:36:30.224Z,102939.56
2022-11-13T19:39:35.832Z,102951.00
2022-11-13T19:42:42.150Z,102942.19
2022-11-13T19:45:47.496Z,102950.94
2022-11-13T19:48:53.916Z,102954.44
2022-11-13T19:51:59.095Z,102949.16
2022-11-13T19:55:04.604Z,102947.41
2022-11-13T19:58:09.987Z,102934.22
2022-11-13T20:01:16.722Z,102863.63
2022-11-13T20:04:23.967Z,102939.44
2022-11-13T20:07:29.686Z,102942.06
2022-11-13T20:10:35.678Z,102944.69
2022-11-13T20:13:41.184Z,102937.63
2022-11-13T20:16:47.039Z,102934.97
2022-11-13T20:19:52.634Z,102933.22
2022-11-13T20:22:58.236Z,102933.19
2022-11-13T20:26:11.881Z,102837.03
2022-11-13T20:29:17.315Z,102933.19
2022-11-13T20:32:23.071Z,102929.66
2022-11-13T20:35:28.998Z,102917.22
2022-11-13T20:38:34.226Z,102926.91
2022-11-13T20:41:39.671Z,102928.78
2022-11-13T20:44:45.007Z,102942.78
2022-11-13T20:47:50.797Z,102934.00
2022-11-13T20:50:56.948Z,102937.47
2022-11-13T20:54:02.647Z,102939.19
2022-11-13T20:57:07.754Z,102928.66
2022-11-13T21:00:13.432Z,102933.91
2022-11-13T21:03:19.025Z,102916.31
2022-11-13T21:06:05.894Z,102920.75
2022-11-13T21:08:53.676Z,102918.09
2022-11-13T21:11:39.438Z,102915.47
2022-11-13T21:14:25.252Z,102890.81
2022-11-13T21:17:11.119Z,102917.22
2022-11-13T21:19:57.875Z,102893.34
2022-11-13T21:22:43.585Z,102913.66
2022-11-13T21:25:29.287Z,102900.44
2022-11-13T21:28:16.491Z,102914.56
2022-11-13T21:31:33.104Z,102912.78
2022-11-13T21:34:38.346Z,102909.28
2022-11-13T21:37:43.976Z,102900.50
2022-11-13T21:40:49.131Z,102902.25
2022-11-13T21:43:54.938Z,102903.13
2022-11-13T21:47:03.167Z,102894.31
2022-11-13T21:50:08.959Z,102903.09
2022-11-13T21:53:14.265Z,102903.09
2022-11-13T21:56:19.851Z,102908.34
2022-11-13T21:59:26.043Z,102894.16
2022-11-13T22:02:31.756Z,102840.41
2022-11-13T22:05:37.195Z,102898.63
2022-11-13T22:08:42.897Z,102851.84
2022-11-13T22:11:32.518Z,102894.25
2022-11-13T22:14:18.793Z,102898.66
2022-11-13T22:17:04.715Z,102887.25
2022-11-13T22:19:50.493Z,102888.13
2022-11-13T22:22:36.034Z,102892.47
2022-11-13T22:25:21.422Z,102893.34
2022-11-13T22:28:06.850Z,102896.00
2022-11-13T22:30:53.095Z,102899.47
2022-11-13T22:33:40.373Z,102777.69
2022-11-13T22:36:37.643Z,102905.59
2022-11-13T22:39:23.095Z,102891.47
2022-11-13T22:42:08.492Z,102903.84
2022-11-13T22:44:56.305Z,102896.81
2022-11-13T22:47:42.655Z,102901.19
2022-11-13T22:50:28.043Z,102902.91
2022-11-13T22:53:14.840Z,102890.59
2022-11-13T22:56:09.450Z,102895.84
2022-11-13T22:58:56.700Z,102889.72
2022-11-13T23:01:47.510Z,102886.22
2022-11-13T23:04:32.987Z,102877.41
2022-11-13T23:07:18.190Z,102879.19
2022-11-13T23:10:04.175Z,102880.91
2022-11-13T23:12:49.567Z,102873.00
2022-11-13T23:15:35.195Z,102877.38
2022-11-13T23:18:20.636Z,102888.75
2022-11-13T23:21:07.534Z,102891.41
2022-11-13T23:23:53.769Z,102874.63
2022-11-13T23:26:39.643Z,102882.59
2022-11-13T23:29:25.244Z,102888.72
2022-11-13T23:32:10.387Z,102878.16
2022-11-13T23:34:59.910Z,102881.69
2022-11-13T23:37:46.864Z,102833.16
2022-11-13T23:40:32.259Z,102884.31
2022-11-13T23:43:18.189Z,102838.47
2022-11-13T23:46:05.075Z,102873.78
2022-11-13T23:48:50.330Z,102830.59
2022-11-13T23:51:35.716Z,102831.47
2022-11-13T23:54:21.082Z,102835.94
2022-11-13T23:57:06.543Z,102850.03
2022-11-13T23:59:52.107Z,102843.00
